Time;durP1;ratioP1;P1;durP2;ratioP2;P2;SDS_P1;SDS_P2;PMS_P1;PMS_P2;Temp;Humidity;BMP_temperature;BMP_pressure;BME280_temperature;BME280_humidity;BME280_pressure;Samples;Min_cycle;Max_cycle;Signal;HPM_P1;HPM_P2
2023/02/08 00:02:55;;;;;;;75.80;44.00;;;22.20;35.60;;;;;;6138792;28;83478;-64
2023/02/08 00:05:56;;;;;;;79.13;44.38;;;22.20;35.60;;;;;;6113202;28;83474;-62
2023/02/08 00:08:56;;;;;;;78.75;45.80;;;22.20;35.50;;;;;;6126810;28;83073;-62
2023/02/08 00:11:57;;;;;;;72.47;44.58;;;22.10;35.50;;;;;;6111582;28;84209;-61
2023/02/08 00:14:58;;;;;;;76.32;44.95;;;22.10;35.30;;;;;;6112965;28;83412;-62
2023/02/08 00:17:58;;;;;;;75.22;44.55;;;22.10;35.30;;;;;;6110250;28;83536;-62
2023/02/08 00:20:59;;;;;;;73.47;44.08;;;22.10;35.20;;;;;;6110840;28;83042;-61
2023/02/08 00:23:59;;;;;;;79.78;47.63;;;22.10;35.10;;;;;;6104875;28;83334;-62
2023/02/08 00:27:00;;;;;;;82.70;46.83;;;22.10;34.90;;;;;;6101640;28;83689;-63
2023/02/08 00:30:00;;;;;;;78.50;46.88;;;22.10;34.90;;;;;;6128031;28;84198;-63
2023/02/08 00:33:03;;;;;;;79.70;46.47;;;22.00;34.80;;;;;;6130443;28;85884;-64
2023/02/08 00:36:04;;;;;;;77.00;45.75;;;22.10;34.80;;;;;;6123930;28;85645;-62
2023/02/08 00:39:05;;;;;;;80.47;45.67;;;22.00;34.80;;;;;;6114544;28;84137;-61
2023/02/08 00:42:05;;;;;;;80.53;47.10;;;22.00;35.00;;;;;;6140330;28;85668;-61
2023/02/08 00:45:06;;;;;;;78.57;45.33;;;22.00;34.80;;;;;;6120447;28;86341;-62
2023/02/08 00:48:06;;;;;;;82.35;46.30;;;22.00;34.80;;;;;;6104707;28;83121;-62
2023/02/08 00:51:07;;;;;;;79.50;46.55;;;22.00;34.80;;;;;;6106453;28;83609;-62
2023/02/08 00:54:08;;;;;;;78.13;45.30;;;22.00;34.70;;;;;;6110119;28;85122;-63
2023/02/08 00:57:08;;;;;;;80.10;46.42;;;22.10;34.50;;;;;;6124146;28;85572;-60
2023/02/08 01:00:09;;;;;;;79.28;46.45;;;22.10;34.10;;;;;;6122710;28;83043;-62
2023/02/08 01:03:11;;;;;;;84.38;47.28;;;22.10;34.30;;;;;;6112133;28;84049;-63
2023/02/08 01:06:11;;;;;;;82.63;47.65;;;22.10;34.20;;;;;;6113273;28;83951;-63
2023/02/08 01:09:12;;;;;;;80.15;46.03;;;22.10;34.10;;;;;;6136691;28;84448;-61
2023/02/08 01:12:12;;;;;;;79.20;45.95;;;22.20;34.20;;;;;;6127619;28;85877;-61
2023/02/08 01:15:13;;;;;;;77.55;45.00;;;22.20;34.20;;;;;;6141023;28;83062;-62
2023/02/08 01:18:13;;;;;;;83.40;47.35;;;22.20;34.30;;;;;;6136817;28;85124;-61
2023/02/08 01:21:15;;;;;;;83.05;46.78;;;22.20;34.20;;;;;;6123875;28;84306;-61
2023/02/08 01:24:16;;;;;;;79.32;47.25;;;22.20;34.50;;;;;;6125365;28;83553;-60
2023/02/08 01:27:16;;;;;;;73.60;44.05;;;22.20;34.60;;;;;;6133021;28;83357;-60
2023/02/08 01:30:17;;;;;;;72.90;44.63;;;22.20;34.70;;;;;;6121257;28;86162;-50
2023/02/08 01:33:17;;;;;;;76.10;43.97;;;22.20;34.80;;;;;;6122517;28;83542;-48
2023/02/08 01:36:18;;;;;;;71.55;42.20;;;22.30;35.10;;;;;;6124206;28;82972;-48
2023/02/08 01:39:18;;;;;;;74.90;42.03;;;22.30;35.40;;;;;;6134794;28;83518;-48
2023/02/08 01:42:19;;;;;;;72.70;41.72;;;22.30;35.20;;;;;;6122229;28;86022;-47
2023/02/08 01:45:21;;;;;;;75.43;41.35;;;22.30;35.30;;;;;;6132791;28;84513;-48
2023/02/08 01:48:22;;;;;;;73.78;43.17;;;22.30;35.60;;;;;;6124800;28;84517;-61
2023/02/08 01:51:22;;;;;;;69.25;41.42;;;22.30;35.60;;;;;;6123052;28;83148;-61
2023/02/08 01:54:23;;;;;;;67.57;40.00;;;22.30;35.60;;;;;;6112054;28;84117;-62
2023/02/08 01:57:25;;;;;;;71.05;40.55;;;22.30;35.60;;;;;;6131493;28;83391;-61
2023/02/08 02:00:26;;;;;;;69.03;39.72;;;22.30;35.50;;;;;;6110844;28;86047;-60
2023/02/08 02:03:26;;;;;;;68.22;40.53;;;22.30;35.40;;;;;;6119453;28;85550;-60
2023/02/08 02:06:27;;;;;;;65.55;39.47;;;22.30;35.50;;;;;;6122323;28;84187;-60
2023/02/08 02:09:28;;;;;;;69.38;41.20;;;22.30;35.40;;;;;;6146246;28;86139;-67
2023/02/08 02:12:28;;;;;;;67.35;40.53;;;22.30;35.50;;;;;;6130596;28;83416;-61
2023/02/08 02:15:29;;;;;;;67.85;41.40;;;22.30;35.40;;;;;;6139285;28;85732;-61
2023/02/08 02:18:30;;;;;;;68.47;41.40;;;22.30;35.30;;;;;;6130617;28;83683;-61
2023/02/08 02:21:30;;;;;;;67.32;40.00;;;22.30;35.30;;;;;;6114512;28;83227;-62
2023/02/08 02:24:31;;;;;;;67.80;39.72;;;22.30;35.20;;;;;;6114343;28;83187;-61
2023/02/08 02:27:32;;;;;;;72.03;40.63;;;22.30;35.10;;;;;;6108277;28;84667;-62
2023/02/08 02:30:33;;;;;;;68.85;41.72;;;22.30;35.00;;;;;;6118217;28;83136;-61
2023/02/08 02:33:34;;;;;;;74.13;41.70;;;22.40;35.00;;;;;;6121518;28;85728;-60
2023/02/08 02:36:35;;;;;;;67.80;41.35;;;22.30;34.80;;;;;;6118401;28;84520;-61
2023/02/08 02:39:36;;;;;;;71.15;42.45;;;22.30;34.80;;;;;;6124963;28;83189;-62
2023/02/08 02:45:57;;;;;;;74.13;42.75;;;22.30;34.50;;;;;;6111770;28;83586;-61
2023/02/08 02:48:57;;;;;;;71.70;41.67;;;22.30;34.50;;;;;;6109082;28;83691;-64
2023/02/08 02:51:58;;;;;;;72.88;41.00;;;22.30;34.60;;;;;;6119016;28;83537;-63
2023/02/08 02:54:59;;;;;;;70.53;42.15;;;22.30;34.60;;;;;;6114237;28;83932;-62
2023/02/08 02:57:59;;;;;;;66.75;40.97;;;22.30;34.50;;;;;;6098036;28;82995;-62
2023/02/08 03:01:00;;;;;;;73.07;42.13;;;22.40;34.50;;;;;;6123910;28;83319;-62
2023/02/08 03:04:01;;;;;;;71.40;41.30;;;22.30;34.50;;;;;;6124998;28;83584;-62
2023/02/08 03:07:01;;;;;;;70.97;40.58;;;22.40;34.70;;;;;;6127075;28;84155;-62
2023/02/08 03:10:02;;;;;;;66.25;40.05;;;22.40;34.60;;;;;;6124878;28;84860;-63
2023/02/08 03:13:03;;;;;;;69.85;40.30;;;22.30;34.70;;;;;;6112727;28;84215;-64
2023/02/08 03:16:04;;;;;;;63.13;37.75;;;22.40;34.70;;;;;;6123250;28;83047;-64
2023/02/08 03:19:04;;;;;;;68.28;40.15;;;22.30;34.80;;;;;;6114413;28;83560;-65
2023/02/08 03:22:05;;;;;;;65.03;38.63;;;22.30;34.70;;;;;;6126831;28;84588;-50
2023/02/08 03:25:05;;;;;;;61.10;37.58;;;22.40;34.80;;;;;;6142745;28;82727;-51
2023/02/08 03:28:06;;;;;;;66.95;40.63;;;22.40;34.80;;;;;;6131872;28;82681;-52
2023/02/08 03:31:07;;;;;;;64.95;38.28;;;22.40;34.80;;;;;;6127153;28;82747;-50
2023/02/08 03:34:07;;;;;;;63.15;37.83;;;22.40;34.70;;;;;;6126607;28;83144;-48
2023/02/08 03:37:08;;;;;;;65.20;39.05;;;22.40;34.80;;;;;;6139280;28;83079;-47
2023/02/08 03:40:08;;;;;;;65.32;39.38;;;22.40;34.60;;;;;;6128169;28;83760;-52
2023/02/08 03:43:09;;;;;;;66.88;40.58;;;22.40;34.60;;;;;;6139415;28;82928;-51
2023/02/08 03:46:10;;;;;;;65.60;39.30;;;22.40;34.50;;;;;;6127231;28;86258;-52
2023/02/08 03:49:10;;;;;;;63.70;37.45;;;22.40;34.50;;;;;;6125993;28;82870;-52
2023/02/08 03:52:11;;;;;;;63.42;38.05;;;22.40;34.50;;;;;;6138423;28;83036;-51
2023/02/08 03:55:11;;;;;;;59.47;35.90;;;22.40;34.90;;;;;;6114210;28;88936;-56
2023/02/08 03:58:12;;;;;;;60.75;37.75;;;22.40;34.30;;;;;;6117970;28;83344;-52
2023/02/08 04:01:12;;;;;;;65.43;37.17;;;22.40;34.20;;;;;;6122499;28;85378;-53
2023/02/08 04:04:13;;;;;;;60.92;34.83;;;22.40;34.20;;;;;;6121373;28;83335;-50
2023/02/08 04:07:13;;;;;;;54.72;34.10;;;22.40;34.10;;;;;;6116395;28;84203;-47
2023/02/08 04:10:14;;;;;;;61.80;36.20;;;22.40;34.10;;;;;;6108261;28;84236;-51
2023/02/08 04:13:15;;;;;;;62.08;36.17;;;22.50;34.10;;;;;;6118826;28;84815;-50
2023/02/08 04:16:15;;;;;;;57.72;35.17;;;22.40;34.00;;;;;;6102663;28;83386;-49
2023/02/08 04:19:16;;;;;;;61.25;35.58;;;22.40;34.00;;;;;;6109941;28;85360;-49
2023/02/08 04:22:16;;;;;;;59.13;33.83;;;22.40;34.10;;;;;;6125900;28;83179;-51
2023/02/08 04:25:17;;;;;;;56.67;34.00;;;22.40;34.00;;;;;;6133647;28;82956;-53
2023/02/08 04:28:18;;;;;;;56.53;34.40;;;22.40;34.20;;;;;;6117408;28;85338;-49
2023/02/08 04:31:18;;;;;;;60.63;34.85;;;22.40;33.90;;;;;;6123816;28;83688;-49
2023/02/08 04:34:19;;;;;;;55.65;33.75;;;22.30;33.90;;;;;;6129792;28;83467;-51
2023/02/08 04:37:19;;;;;;;65.55;37.10;;;22.30;34.10;;;;;;6114915;28;83691;-49
2023/02/08 04:40:20;;;;;;;58.70;34.08;;;22.30;33.70;;;;;;6095627;28;84662;-48
2023/02/08 04:43:21;;;;;;;56.88;33.38;;;22.30;33.90;;;;;;6096015;28;85818;-46
2023/02/08 04:46:21;;;;;;;50.67;31.75;;;22.30;34.20;;;;;;6098813;28;89834;-50
2023/02/08 04:49:22;;;;;;;53.45;32.28;;;22.30;35.00;;;;;;6114409;28;83626;-50
2023/02/08 04:52:22;;;;;;;52.17;30.10;;;22.30;35.50;;;;;;6108194;28;84387;-48
2023/02/08 04:55:23;;;;;;;52.63;29.88;;;22.30;35.50;;;;;;6107544;28;83200;-58
2023/02/08 04:58:23;;;;;;;57.85;30.27;;;22.30;35.80;;;;;;6120518;28;83141;-54
2023/02/08 05:01:24;;;;;;;50.65;29.98;;;22.30;36.00;;;;;;6114671;28;84287;-50
2023/02/08 05:04:24;;;;;;;52.17;28.00;;;22.30;36.00;;;;;;6113118;28;83203;-52
2023/02/08 05:07:25;;;;;;;48.55;27.80;;;22.30;37.10;;;;;;6115101;28;83104;-49
2023/02/08 05:10:25;;;;;;;48.72;27.60;;;22.20;36.60;;;;;;6103136;28;83272;-52
2023/02/08 05:13:26;;;;;;;48.22;29.38;;;22.30;36.90;;;;;;6102776;28;83287;-49
2023/02/08 05:16:27;;;;;;;47.38;27.92;;;22.30;36.90;;;;;;6108715;28;84566;-58
2023/02/08 05:19:27;;;;;;;47.40;28.17;;;22.30;36.90;;;;;;6107180;28;83674;-58
2023/02/08 05:22:28;;;;;;;46.03;28.30;;;22.30;36.70;;;;;;6102306;28;84242;-55
2023/02/08 05:25:28;;;;;;;49.90;28.17;;;22.20;36.00;;;;;;6103976;28;83864;-53
2023/02/08 05:28:29;;;;;;;47.28;26.30;;;22.20;36.50;;;;;;6121234;28;83006;-50
2023/02/08 05:31:29;;;;;;;41.28;26.27;;;22.20;36.70;;;;;;6106286;28;83311;-48
2023/02/08 05:34:30;;;;;;;43.50;26.48;;;22.20;36.60;;;;;;6123021;28;89730;-51
2023/02/08 05:37:30;;;;;;;43.50;26.02;;;22.20;37.10;;;;;;6124861;28;83928;-53
2023/02/08 05:40:31;;;;;;;42.53;25.58;;;22.10;36.40;;;;;;6114297;28;83766;-48
2023/02/08 05:43:31;;;;;;;40.20;25.52;;;22.10;36.60;;;;;;6103988;28;83465;-48
2023/02/08 05:46:32;;;;;;;44.47;24.73;;;22.10;36.70;;;;;;6108374;28;83151;-49
2023/02/08 05:49:32;;;;;;;42.85;24.60;;;22.00;36.60;;;;;;6115134;28;83492;-59
2023/02/08 05:52:33;;;;;;;44.40;25.98;;;22.00;36.90;;;;;;6127527;28;84262;-58
2023/02/08 05:55:33;;;;;;;39.45;24.40;;;22.00;36.20;;;;;;6122112;28;84738;-55
2023/02/08 05:58:34;;;;;;;46.00;25.92;;;21.90;35.90;;;;;;6137117;28;83436;-56
2023/02/08 06:01:34;;;;;;;39.85;24.27;;;21.90;35.90;;;;;;6136455;28;83464;-51
2023/02/08 06:04:35;;;;;;;40.22;23.08;;;21.80;35.80;;;;;;6122446;28;83177;-51
2023/02/08 06:07:35;;;;;;;43.85;24.60;;;21.80;36.00;;;;;;6123535;28;82960;-64
2023/02/08 06:10:36;;;;;;;37.60;22.88;;;21.80;36.30;;;;;;6127968;28;83054;-64
2023/02/08 06:13:37;;;;;;;37.47;22.77;;;21.80;36.40;;;;;;6128369;28;83487;-64
2023/02/08 06:16:38;;;;;;;35.33;21.67;;;21.80;36.20;;;;;;6127145;28;83307;-63
2023/02/08 06:19:38;;;;;;;38.45;22.83;;;21.80;35.90;;;;;;6127677;28;82990;-63
2023/02/08 06:22:39;;;;;;;38.40;22.05;;;21.80;35.80;;;;;;6127536;28;84092;-63
2023/02/08 06:25:39;;;;;;;38.45;22.10;;;21.70;35.60;;;;;;6139229;28;83027;-60
2023/02/08 06:28:40;;;;;;;38.38;21.90;;;21.70;35.50;;;;;;6124073;28;83123;-59
2023/02/08 06:31:40;;;;;;;36.60;21.30;;;21.70;35.30;;;;;;6129335;28;83374;-61
2023/02/08 06:34:41;;;;;;;35.33;22.30;;;21.70;35.20;;;;;;6112547;28;86485;-60
2023/02/08 06:37:41;;;;;;;38.95;22.65;;;21.70;35.30;;;;;;6130997;28;83046;-59
2023/02/08 06:40:42;;;;;;;37.92;23.25;;;21.70;35.40;;;;;;6141310;28;83063;-59
2023/02/08 06:43:42;;;;;;;42.42;24.33;;;21.60;35.30;;;;;;6111500;28;83587;-59
2023/02/08 06:46:43;;;;;;;36.85;23.90;;;21.60;35.20;;;;;;6109154;28;83965;-58
2023/02/08 06:49:44;;;;;;;43.75;26.15;;;21.60;35.20;;;;;;6136000;28;84986;-59
2023/02/08 06:52:44;;;;;;;46.13;25.65;;;21.60;35.20;;;;;;6138297;28;83322;-58
2023/02/08 06:55:45;;;;;;;46.80;27.17;;;21.60;35.40;;;;;;6127248;28;82936;-59
2023/02/08 06:58:45;;;;;;;43.58;27.27;;;21.60;35.30;;;;;;6113940;28;84407;-59
2023/02/08 07:01:46;;;;;;;47.85;29.30;;;21.60;35.20;;;;;;6107702;28;83331;-48
2023/02/08 07:04:46;;;;;;;45.05;28.75;;;21.60;35.10;;;;;;6110264;28;83886;-51
2023/02/08 07:07:47;;;;;;;50.38;30.00;;;21.50;35.10;;;;;;6122032;28;83169;-49
2023/02/08 07:10:48;;;;;;;53.97;31.17;;;21.50;35.10;;;;;;6127818;28;84833;-47
2023/02/08 07:13:48;;;;;;;53.85;30.02;;;21.50;35.10;;;;;;6120397;28;86264;-49
2023/02/08 07:16:49;;;;;;;56.15;32.78;;;21.50;35.00;;;;;;6126650;28;83220;-53
2023/02/08 07:19:49;;;;;;;47.08;30.73;;;21.50;34.90;;;;;;6125987;28;84147;-52
2023/02/08 07:22:50;;;;;;;52.50;32.30;;;21.50;34.80;;;;;;6117310;28;84470;-51
2023/02/08 07:25:51;;;;;;;51.92;31.85;;;21.50;34.80;;;;;;6114521;28;85206;-51
2023/02/08 07:28:51;;;;;;;53.08;31.52;;;21.50;34.90;;;;;;6116735;28;83062;-50
2023/02/08 07:31:52;;;;;;;50.28;31.98;;;21.50;35.00;;;;;;6121447;28;83714;-51
2023/02/08 07:34:53;;;;;;;54.50;33.20;;;21.40;34.60;;;;;;6114669;28;83727;-52
2023/02/08 07:37:53;;;;;;;52.67;32.47;;;21.40;34.50;;;;;;6121787;28;84247;-50
2023/02/08 07:40:54;;;;;;;56.47;34.33;;;21.40;34.50;;;;;;6122241;28;83405;-61
2023/02/08 07:43:54;;;;;;;57.20;33.65;;;21.40;34.50;;;;;;6136078;28;87506;-50
2023/02/08 07:46:55;;;;;;;56.22;32.63;;;21.40;34.30;;;;;;6125970;28;83768;-52
2023/02/08 07:49:55;;;;;;;53.65;32.38;;;21.40;34.30;;;;;;6120535;28;83302;-72
2023/02/08 07:52:56;;;;;;;54.75;32.60;;;21.40;34.40;;;;;;6116388;28;82884;-53
2023/02/08 07:55:56;;;;;;;55.58;31.75;;;21.40;34.10;;;;;;6134255;28;83902;-51
2023/02/08 07:58:57;;;;;;;57.92;31.85;;;21.50;34.20;;;;;;6127975;28;83391;-50
2023/02/08 08:01:57;;;;;;;53.67;31.17;;;21.40;34.10;;;;;;6112444;28;83407;-49
2023/02/08 08:04:58;;;;;;;57.90;32.03;;;21.50;33.90;;;;;;6113836;28;84302;-49
2023/02/08 08:07:59;;;;;;;53.13;32.42;;;21.50;34.00;;;;;;6112291;28;84082;-52
2023/02/08 08:10:59;;;;;;;49.78;28.92;;;21.40;33.90;;;;;;6116304;28;83425;-49
2023/02/08 08:14:00;;;;;;;50.03;30.38;;;21.40;34.00;;;;;;6119075;28;83380;-48
2023/02/08 08:17:00;;;;;;;47.30;28.52;;;21.50;34.10;;;;;;6118329;28;83590;-53
2023/02/08 08:20:01;;;;;;;45.55;28.08;;;21.50;34.10;;;;;;6116132;28;83048;-53
2023/02/08 08:23:01;;;;;;;45.00;27.02;;;21.50;34.20;;;;;;6116896;28;83429;-49
2023/02/08 08:26:02;;;;;;;42.35;26.42;;;21.60;34.10;;;;;;6122261;28;83614;-53
2023/02/08 08:29:02;;;;;;;43.08;26.85;;;21.60;33.80;;;;;;6111140;28;83551;-52
2023/02/08 08:32:03;;;;;;;36.60;22.30;;;21.70;33.80;;;;;;6113115;28;83992;-53
2023/02/08 08:35:04;;;;;;;34.60;21.17;;;21.70;33.80;;;;;;6117475;28;84490;-50
2023/02/08 08:38:04;;;;;;;32.80;20.55;;;21.80;33.70;;;;;;6127005;28;82790;-59
2023/02/08 08:41:05;;;;;;;32.22;19.90;;;21.90;34.00;;;;;;6117876;28;83148;-58
2023/02/08 08:44:05;;;;;;;30.75;19.88;;;21.90;33.60;;;;;;6106993;28;82952;-52
2023/02/08 08:47:06;;;;;;;31.05;20.38;;;22.00;34.20;;;;;;6108844;28;85701;-47
2023/02/08 08:50:06;;;;;;;31.52;19.23;;;22.00;33.50;;;;;;6120674;28;87276;-51
2023/02/08 08:53:07;;;;;;;30.38;18.42;;;22.10;33.50;;;;;;6121953;28;83073;-53
2023/02/08 08:56:07;;;;;;;29.33;18.10;;;22.10;33.40;;;;;;6122057;28;84574;-50
2023/02/08 08:59:08;;;;;;;28.30;17.77;;;22.10;33.40;;;;;;6134478;28;82974;-53
2023/02/08 09:02:08;;;;;;;28.70;18.15;;;22.10;33.30;;;;;;6123383;28;82840;-49
2023/02/08 09:05:09;;;;;;;31.85;18.33;;;22.10;33.20;;;;;;6134061;28;83543;-51
2023/02/08 09:08:09;;;;;;;29.60;18.88;;;22.20;33.20;;;;;;6125802;28;83343;-49
2023/02/08 09:11:10;;;;;;;29.80;17.13;;;22.20;33.20;;;;;;6130795;28;83318;-57
2023/02/08 09:14:10;;;;;;;26.35;16.80;;;22.20;33.10;;;;;;6121450;28;85531;-58
2023/02/08 09:17:11;;;;;;;25.60;16.58;;;22.20;33.20;;;;;;6121914;28;83211;-59
2023/02/08 09:20:12;;;;;;;23.90;15.93;;;22.20;33.20;;;;;;6112489;28;84695;-58
2023/02/08 09:23:13;;;;;;;25.17;16.58;;;22.30;33.10;;;;;;6131677;28;83479;-59
2023/02/08 09:26:13;;;;;;;27.85;16.35;;;22.30;33.10;;;;;;6141848;28;83000;-57
2023/02/08 09:29:14;;;;;;;23.40;15.90;;;22.30;33.10;;;;;;6117902;28;84000;-51
2023/02/08 09:32:14;;;;;;;23.42;15.35;;;22.30;33.10;;;;;;6121388;28;84199;-53
2023/02/08 09:35:15;;;;;;;24.08;14.25;;;22.40;33.00;;;;;;6129784;28;83403;-54
2023/02/08 09:38:15;;;;;;;21.83;14.80;;;22.40;33.00;;;;;;6122502;28;83139;-55
2023/02/08 09:41:16;;;;;;;20.05;13.32;;;22.50;33.50;;;;;;6124498;28;83372;-51
2023/02/08 09:44:17;;;;;;;21.08;14.07;;;22.60;32.90;;;;;;6117467;28;83250;-51
2023/02/08 09:47:17;;;;;;;20.90;13.75;;;22.80;32.90;;;;;;6141513;28;83269;-51
2023/02/08 09:50:18;;;;;;;21.15;12.73;;;22.90;32.80;;;;;;6127847;28;84583;-52
2023/02/08 09:53:19;;;;;;;21.60;13.18;;;23.00;32.80;;;;;;6124187;28;83559;-51
2023/02/08 09:56:19;;;;;;;18.45;11.43;;;23.00;32.80;;;;;;6123012;28;83340;-49
2023/02/08 09:59:20;;;;;;;19.02;11.60;;;23.00;32.80;;;;;;6133679;28;82992;-50
2023/02/08 10:02:20;;;;;;;18.10;11.57;;;23.10;32.80;;;;;;6123513;28;83578;-51
2023/02/08 10:05:21;;;;;;;17.73;11.23;;;23.30;32.90;;;;;;6123684;28;83079;-60
2023/02/08 10:08:21;;;;;;;16.15;11.05;;;23.30;32.90;;;;;;6114979;28;87924;-59
2023/02/08 10:11:22;;;;;;;18.48;11.23;;;23.30;33.00;;;;;;6115262;28;83683;-58
2023/02/08 10:14:22;;;;;;;16.95;10.32;;;23.30;33.00;;;;;;6090034;28;83448;-59
2023/02/08 10:17:24;;;;;;;21.40;10.85;;;23.30;33.10;;;;;;6112636;28;83173;-57
2023/02/08 10:20:24;;;;;;;13.95;10.00;;;23.30;33.30;;;;;;6100582;28;84738;-58
2023/02/08 10:23:25;;;;;;;14.38;9.60;;;23.30;33.40;;;;;;6106227;28;84981;-59
2023/02/08 10:26:25;;;;;;;15.43;10.13;;;23.30;33.50;;;;;;6108410;28;83484;-58
2023/02/08 10:29:26;;;;;;;16.80;10.18;;;23.30;33.80;;;;;;6105947;28;83838;-57
2023/02/08 10:32:26;;;;;;;13.25;8.60;;;23.30;33.70;;;;;;6121970;28;82797;-58
2023/02/08 10:35:27;;;;;;;13.07;8.65;;;23.40;33.90;;;;;;6122678;28;82896;-58
2023/02/08 10:38:28;;;;;;;15.30;8.93;;;23.30;33.70;;;;;;6135713;28;80545;-60
2023/02/08 10:41:29;;;;;;;13.35;8.73;;;23.30;33.80;;;;;;6112907;28;80345;-59
2023/02/08 10:44:29;;;;;;;13.02;7.78;;;23.30;33.80;;;;;;6110729;28;81955;-59
2023/02/08 10:47:30;;;;;;;12.43;8.18;;;23.50;33.60;;;;;;6118652;28;80755;-58
2023/02/08 10:50:30;;;;;;;11.50;7.70;;;23.60;33.50;;;;;;6132505;28;81392;-58
2023/02/08 10:53:31;;;;;;;11.50;7.75;;;23.80;33.40;;;;;;6126530;28;80755;-59
2023/02/08 10:56:31;;;;;;;11.43;7.55;;;23.90;33.30;;;;;;6120262;28;87341;-59
2023/02/08 10:59:32;;;;;;;9.88;7.57;;;24.00;33.10;;;;;;6130859;28;80756;-51
2023/02/08 11:02:32;;;;;;;11.70;8.05;;;24.00;33.10;;;;;;6132777;28;80320;-52
2023/02/08 11:05:33;;;;;;;13.02;7.93;;;24.00;33.10;;;;;;6133190;28;80605;-49
2023/02/08 11:08:34;;;;;;;11.05;7.30;;;23.90;33.00;;;;;;6131511;28;85606;-52
2023/02/08 11:11:35;;;;;;;12.27;8.13;;;23.80;33.10;;;;;;6131253;28;80390;-50
2023/02/08 11:14:35;;;;;;;10.43;7.63;;;23.80;33.30;;;;;;6137094;28;80441;-53
2023/02/08 11:17:36;;;;;;;12.18;8.35;;;23.70;33.30;;;;;;6137657;28;80254;-52
2023/02/08 11:20:36;;;;;;;11.55;8.55;;;23.70;33.40;;;;;;6127733;28;80173;-53
2023/02/08 11:23:37;;;;;;;12.95;8.10;;;23.60;33.40;;;;;;6124136;28;80615;-48
2023/02/08 11:26:37;;;;;;;12.98;8.63;;;23.60;33.50;;;;;;6128065;28;80885;-51
2023/02/08 11:29:38;;;;;;;12.77;9.05;;;23.60;33.30;;;;;;6116100;28;82450;-53
2023/02/08 11:32:38;;;;;;;11.27;7.70;;;23.50;33.20;;;;;;6137586;28;81155;-48
2023/02/08 11:35:39;;;;;;;12.73;7.40;;;23.50;33.30;;;;;;6129736;28;81054;-51
2023/02/08 11:38:39;;;;;;;11.00;7.80;;;23.40;33.40;;;;;;6141018;28;80349;-51
2023/02/08 11:41:40;;;;;;;11.57;7.70;;;23.30;33.40;;;;;;6130119;28;81006;-51
2023/02/08 11:44:40;;;;;;;11.88;7.70;;;23.30;33.50;;;;;;6137273;28;80854;-52
2023/02/08 11:47:41;;;;;;;12.38;7.88;;;23.30;33.40;;;;;;6131167;28;80293;-49
2023/02/08 11:50:41;;;;;;;11.93;7.35;;;23.40;33.30;;;;;;6128621;28;80395;-53
2023/02/08 11:53:42;;;;;;;11.65;7.82;;;23.50;33.30;;;;;;6120614;28;80466;-49
2023/02/08 11:56:42;;;;;;;10.70;6.28;;;23.50;33.20;;;;;;6107622;28;81055;-55
2023/02/08 11:59:43;;;;;;;12.15;7.38;;;23.60;33.20;;;;;;6122232;28;80071;-51
2023/02/08 12:02:45;;;;;;;12.13;7.95;;;23.60;33.20;;;;;;6120766;28;81439;-47
2023/02/08 12:05:45;;;;;;;10.02;7.40;;;23.60;33.10;;;;;;6122520;28;80568;-50
2023/02/08 12:08:46;;;;;;;9.48;6.68;;;23.70;33.00;;;;;;6129311;28;83063;-54
2023/02/08 12:11:46;;;;;;;11.77;7.40;;;23.70;33.10;;;;;;6128112;28;81360;-56
2023/02/08 12:14:47;;;;;;;9.48;6.30;;;23.80;32.50;;;;;;6111480;28;80298;-64
2023/02/08 12:17:47;;;;;;;11.65;7.15;;;23.90;32.70;;;;;;6112586;28;80427;-63
2023/02/08 12:20:48;;;;;;;11.18;7.35;;;24.00;31.80;;;;;;6107750;28;80843;-63
2023/02/08 12:23:48;;;;;;;9.90;6.50;;;24.00;31.40;;;;;;6114701;28;81377;-61
2023/02/08 12:26:49;;;;;;;10.02;7.30;;;24.00;31.20;;;;;;6110246;28;81430;-61
2023/02/08 12:29:49;;;;;;;9.68;7.43;;;24.10;31.00;;;;;;6120059;28;80701;-60
2023/02/08 12:32:50;;;;;;;10.52;7.85;;;24.10;30.80;;;;;;6123734;28;80591;-52
2023/02/08 12:35:51;;;;;;;10.50;7.20;;;24.10;30.70;;;;;;6127143;28;80512;-48
2023/02/08 12:42:10;;;;;;;9.45;7.03;;;24.30;30.70;;;;;;6131098;28;81955;-50
2023/02/08 12:45:12;;;;;;;12.45;7.40;;;24.30;30.70;;;;;;6123650;28;80580;-50
2023/02/08 12:48:13;;;;;;;9.85;7.38;;;24.30;30.80;;;;;;6112449;28;82322;-52
2023/02/08 12:51:13;;;;;;;12.55;7.93;;;24.40;30.80;;;;;;6140087;28;80291;-50
2023/02/08 12:54:14;;;;;;;10.20;7.18;;;24.40;30.70;;;;;;6128789;28;80257;-50
2023/02/08 12:57:14;;;;;;;10.82;7.28;;;24.40;30.70;;;;;;6103728;28;81705;-53
2023/02/08 13:00:15;;;;;;;10.90;7.45;;;24.50;30.70;;;;;;6132170;28;80600;-52
2023/02/08 13:03:15;;;;;;;12.13;7.00;;;24.50;30.70;;;;;;6120444;28;81217;-51
2023/02/08 13:06:16;;;;;;;9.43;7.13;;;24.50;30.50;;;;;;6111528;28;84841;-51
2023/02/08 13:09:16;;;;;;;10.45;7.00;;;24.60;31.10;;;;;;6128550;28;82341;-48
2023/02/08 13:12:17;;;;;;;11.90;7.45;;;24.60;30.60;;;;;;6112536;28;80419;-51
2023/02/08 13:15:18;;;;;;;11.05;7.32;;;24.60;30.70;;;;;;6124344;28;80645;-49
2023/02/08 13:18:18;;;;;;;10.68;7.10;;;24.60;30.80;;;;;;6121667;28;80310;-51
2023/02/08 13:21:19;;;;;;;10.65;7.60;;;24.60;30.80;;;;;;6118143;28;81117;-48
2023/02/08 13:24:19;;;;;;;8.98;7.07;;;24.70;31.00;;;;;;6105759;28;81754;-49
2023/02/08 13:27:20;;;;;;;12.35;8.32;;;24.70;30.90;;;;;;6118532;28;80574;-59
2023/02/08 13:30:20;;;;;;;11.73;8.00;;;24.70;30.70;;;;;;6119252;28;81425;-61
2023/02/08 13:33:21;;;;;;;11.02;8.23;;;24.70;31.00;;;;;;6104689;28;80976;-60
2023/02/08 13:36:22;;;;;;;13.40;8.73;;;24.70;30.60;;;;;;6124385;28;81353;-61
2023/02/08 13:39:22;;;;;;;13.30;8.60;;;24.60;30.30;;;;;;6106071;28;80928;-61
2023/02/08 13:42:23;;;;;;;12.10;8.52;;;24.50;30.10;;;;;;6103584;28;81027;-62
2023/02/08 13:45:23;;;;;;;11.20;7.88;;;24.50;30.10;;;;;;6108236;28;81588;-61
2023/02/08 13:48:25;;;;;;;13.30;8.77;;;24.40;30.00;;;;;;6114186;28;80745;-61
2023/02/08 13:51:26;;;;;;;11.85;8.70;;;24.30;30.00;;;;;;6106424;28;80816;-59
2023/02/08 13:54:26;;;;;;;11.02;7.80;;;24.20;30.20;;;;;;6114931;28;80532;-60
2023/02/08 13:57:27;;;;;;;10.93;8.10;;;24.10;30.20;;;;;;6123195;28;80337;-60
2023/02/08 14:00:27;;;;;;;11.25;8.32;;;24.00;30.10;;;;;;6116965;28;80381;-59
2023/02/08 14:03:28;;;;;;;12.73;9.02;;;23.90;30.00;;;;;;6119910;28;81433;-60
2023/02/08 14:06:28;;;;;;;13.65;8.43;;;24.00;29.80;;;;;;6112434;28;81966;-59
2023/02/08 14:09:29;;;;;;;12.70;9.40;;;24.30;29.60;;;;;;6119143;28;80772;-59
2023/02/08 14:12:29;;;;;;;17.35;8.85;;;24.70;29.10;;;;;;6115157;28;82628;-61
2023/02/08 14:15:30;;;;;;;15.98;9.23;;;25.20;28.80;;;;;;6124186;28;81001;-60
2023/02/08 14:18:30;;;;;;;11.50;8.10;;;25.70;28.40;;;;;;6103722;28;84235;-59
2023/02/08 14:21:31;;;;;;;11.77;8.70;;;25.90;28.10;;;;;;6140823;28;81409;-60
2023/02/08 14:24:33;;;;;;;10.75;8.13;;;26.30;27.80;;;;;;6123762;28;80567;-60
2023/02/08 14:27:33;;;;;;;11.80;8.25;;;26.50;27.70;;;;;;6113208;28;80085;-60
2023/02/08 14:30:34;;;;;;;12.73;8.77;;;26.60;28.00;;;;;;6123735;28;84391;-59
2023/02/08 14:33:34;;;;;;;12.60;8.15;;;26.80;27.70;;;;;;6132722;28;80393;-61
2023/02/08 14:36:35;;;;;;;16.48;9.65;;;27.00;27.70;;;;;;6141626;28;81323;-61
2023/02/08 14:39:36;;;;;;;11.20;8.23;;;27.00;27.70;;;;;;6117670;28;80545;-62
2023/02/08 14:42:36;;;;;;;10.85;8.18;;;27.00;27.70;;;;;;6120191;28;80453;-49
2023/02/08 14:45:37;;;;;;;11.68;8.20;;;26.70;27.80;;;;;;6125908;28;80207;-49
2023/02/08 14:48:37;;;;;;;11.82;8.00;;;26.40;28.20;;;;;;6118523;28;83274;-50
2023/02/08 14:51:38;;;;;;;11.05;7.32;;;26.10;28.70;;;;;;6118925;28;80958;-52
2023/02/08 14:54:38;;;;;;;10.05;7.28;;;25.80;29.50;;;;;;6100261;28;80783;-49
2023/02/08 14:57:39;;;;;;;11.52;7.63;;;25.60;30.00;;;;;;6108270;28;83845;-57
2023/02/08 15:00:39;;;;;;;15.10;7.28;;;25.40;30.00;;;;;;6107953;28;83266;-48
2023/02/08 15:03:40;;;;;;;10.88;7.03;;;25.20;30.90;;;;;;6106094;28;80646;-53
2023/02/08 15:06:42;;;;;;;13.10;6.82;;;25.00;31.10;;;;;;6123894;28;80697;-49
2023/02/08 15:09:42;;;;;;;11.35;6.97;;;24.80;31.40;;;;;;6108659;28;84291;-50
2023/02/08 15:12:43;;;;;;;11.73;6.55;;;24.60;32.70;;;;;;6114728;28;80499;-51
2023/02/08 15:15:44;;;;;;;11.68;7.63;;;24.60;33.50;;;;;;6123238;28;81527;-50
2023/02/08 15:18:45;;;;;;;9.88;7.18;;;24.40;35.10;;;;;;6115874;28;81926;-59
2023/02/08 15:21:45;;;;;;;15.38;7.07;;;24.30;35.60;;;;;;6111837;28;85890;-56
2023/02/08 15:24:46;;;;;;;10.65;6.43;;;24.20;35.00;;;;;;6095796;28;82015;-54
2023/02/08 15:27:47;;;;;;;10.02;6.38;;;24.10;35.20;;;;;;6093196;28;81058;-52